イカルイト の空港の天気 - METARとTAF

イカルイト空港 ( CYFB / YFB ) - カナダ ヌナブト準州イカルイト
飛行場実況気象(Metar)
観測時間11/30 15:00 EST (11/30 20:00 UTC)
風向・風速北西 5m/s
視程10km以上
天気現象
少しの雲 雲底高度 240m
気温-24℃
湿度70%
気圧1023.8hPa
METARCYFB 302000Z 32010KT 30SM FEW008 M24/M28 A3021 RMK SF1 SF TR SLP238
過去の天気等 Google飛行場航空写真 Wunderground天気予報

過去48時間のMETAR

飛行場予報(TAF)
発表時間: 11/30 12:38 EST (11/30 17:38 UTC)
予報対象時間: 30日13時 EST ~ 1日13時 EST
風向・風速北北西 6m/s 瞬間風速 11m/s
視程10km以上
全天の4割程度の雲 雲底高度 240m
30日13時 EST ~ 30日15時 EST に一時的に
視程10km以上
天気現象細氷 高い地吹雪
全天を覆う雲 雲底高度 240m
30日13時 EST から 確率 30% で
視程1610m
天気現象高い地吹雪
全天を覆う雲 鉛直視程 120m
30日15時 EST から
風向・風速北西 8m/s
視程10km以上
少しの雲 雲底高度 300m
30日15時 EST ~ 30日21時 EST に一時的に
視程4830m
天気現象細氷
全天の8割程度の雲 雲底高度 300m
30日23時 EST ~ 1日1時 EST に徐々に
風向・風速北西 3m/s
1日1時 EST から
風向・風速北西 3m/s
視程10km以上
少しの雲 雲底高度 240m
1日1時 EST ~ 1日13時 EST に一時的に
視程6440m
天気現象細氷
全天の8割程度の雲 雲底高度 240m
TAF CYFB 301738Z 3018/0118 33012G22KT P6SM SCT008
TEMPO 3018/3020 21/2SM IC BLSN OVC008
PROB30 3018/3020 1SM BLSN VV004
FM302000 32015KT P6SM FEW010
TEMPO 3020/0102 3SM IC BKN010
BECMG 0104/0106 32005KT
FM010600 32005KT P6SM FEW008
TEMPO 0106/0118 4SM IC BKN008 RMK NXT FCST BY 010000Z